Terminal Aerodrome Forecast
Issued by NWS

Home | Current Version | Previous Version | Text Only | Print | Product List | Glossary On
Versions: 1 2 3 4 5 6 7 8 9 10 11 12 13 14 15 16
000
FTUS43 KAPX 250500 RRA
TAFPLN
TAF
KPLN 250548Z 2506/2606 22003KT P6SM SCT015
     FM250700 23005KT 5SM -DZ BR OVC005
     FM251000 25011KT P6SM OVC008
     FM251300 27011G20KT P6SM SCT015
     FM251500 29013G23KT P6SM FEW040
     FM260000 30010G17KT P6SM BKN050=

USA.gov is the U.S. government's official web portal to all federal, state and local government web resources and services.